Time;durP1;ratioP1;P1;durP2;ratioP2;P2;SDS_P1;SDS_P2;PMS_P1;PMS_P2;Temp;Humidity;BMP_temperature;BMP_pressure;BME280_temperature;BME280_humidity;BME280_pressure;Samples;Min_cycle;Max_cycle;Signal;HPM_P1;HPM_P2
2022/12/29 00:02:03;;;;;;;;;;;;;;;10.42;100.00;99993.28;4914325;29;20291;-67
2022/12/29 00:04:29;;;;;;;;;;;;;;;10.38;100.00;99980.06;4914077;29;20013;-67
2022/12/29 00:06:55;;;;;;;;;;;;;;;10.30;100.00;99975.00;4912947;29;19930;-66
2022/12/29 00:09:20;;;;;;;;;;;;;;;10.29;100.00;99981.56;4915075;29;19926;-66
2022/12/29 00:11:46;;;;;;;;;;;;;;;10.43;100.00;99981.22;4912916;29;19919;-66
2022/12/29 00:16:55;;;;;;;;;;;;;;;10.34;100.00;99973.44;4914050;29;19922;-67
2022/12/29 00:35:55;;;;;;;;;;;;;;;10.33;100.00;99947.03;4913214;29;20334;-67
2022/12/29 00:44:07;;;;;;;;;;;;;;;10.08;100.00;99941.13;4912021;29;19918;-66
2022/12/29 00:46:32;;;;;;;;;;;;;;;9.90;100.00;99930.41;4913856;29;19919;-67
2022/12/29 00:51:42;;;;;;;;;;;;;;;9.76;100.00;99919.75;4912517;29;20329;-67
2022/12/29 00:54:07;;;;;;;;;;;;;;;9.68;100.00;99916.56;4913873;29;19919;-68
2022/12/29 00:56:32;;;;;;;;;;;;;;;9.63;100.00;99914.59;4913619;29;20002;-67
2022/12/29 00:59:02;;;;;;;;;;;;;;;9.64;100.00;99915.44;4912936;29;19926;-67
2022/12/29 01:01:27;;;;;;;;;;;;;;;9.68;100.00;99919.31;4913268;29;19919;-66
2022/12/29 01:03:52;;;;;;;;;;;;;;;9.62;100.00;99918.41;4912771;29;19926;-66
2022/12/29 01:06:17;;;;;;;;;;;;;;;9.61;100.00;99905.78;4911810;29;19915;-66
2022/12/29 01:08:42;;;;;;;;;;;;;;;9.66;100.00;99897.63;4910582;29;19923;-67
2022/12/29 01:11:08;;;;;;;;;;;;;;;9.57;100.00;99899.13;4912290;29;20014;-68
2022/12/29 01:13:34;;;;;;;;;;;;;;;9.68;100.00;99901.00;4912927;29;19915;-66
2022/12/29 01:15:59;;;;;;;;;;;;;;;9.62;100.00;99889.06;4913002;29;20014;-66
2022/12/29 01:18:25;;;;;;;;;;;;;;;9.69;100.00;99883.44;4912670;29;19954;-67
2022/12/29 01:20:50;;;;;;;;;;;;;;;9.72;100.00;99891.16;4913223;29;20013;-66
2022/12/29 01:23:15;;;;;;;;;;;;;;;9.72;100.00;99885.69;4912301;29;19926;-67
2022/12/29 01:25:41;;;;;;;;;;;;;;;9.68;100.00;99891.91;4913247;29;19915;-68
2022/12/29 01:28:08;;;;;;;;;;;;;;;9.79;100.00;99893.75;4912609;29;19919;-66
2022/12/29 01:30:33;;;;;;;;;;;;;;;9.84;100.00;99889.19;4913645;29;19915;-66
2022/12/29 01:32:58;;;;;;;;;;;;;;;10.04;100.00;99882.38;4912748;29;19926;-67
2022/12/29 01:35:23;;;;;;;;;;;;;;;10.01;100.00;99880.13;4913259;29;20454;-67
2022/12/29 01:37:48;;;;;;;;;;;;;;;9.96;100.00;99869.88;4911296;29;19923;-67
2022/12/29 01:40:14;;;;;;;;;;;;;;;10.03;100.00;99872.44;4912079;29;19946;-66
2022/12/29 01:42:39;;;;;;;;;;;;;;;10.04;100.00;99872.22;4912108;29;19919;-66
2022/12/29 01:45:08;;;;;;;;;;;;;;;10.07;100.00;99879.09;4912265;29;20063;-67
2022/12/29 01:47:37;;;;;;;;;;;;;;;10.22;100.00;99873.84;4911870;29;19915;-66
2022/12/29 01:50:09;;;;;;;;;;;;;;;10.15;100.00;99881.44;4910643;29;20033;-67
2022/12/29 01:52:37;;;;;;;;;;;;;;;10.22;100.00;99884.81;4911133;29;20503;-67
2022/12/29 01:55:04;;;;;;;;;;;;;;;10.30;100.00;99865.22;4913365;29;19966;-66
2022/12/29 01:57:31;;;;;;;;;;;;;;;10.44;100.00;99865.69;4912981;29;19915;-67
2022/12/29 01:59:59;;;;;;;;;;;;;;;10.45;100.00;99878.34;4911342;29;19922;-68
2022/12/29 02:02:25;;;;;;;;;;;;;;;10.38;100.00;99862.03;4911816;29;19919;-66
2022/12/29 02:04:51;;;;;;;;;;;;;;;10.50;100.00;99872.09;4911417;29;20424;-67
2022/12/29 02:07:21;;;;;;;;;;;;;;;10.37;100.00;99860.38;4911508;29;19919;-67
2022/12/29 02:09:48;;;;;;;;;;;;;;;10.48;100.00;99868.75;4911740;29;19924;-67
2022/12/29 02:12:13;;;;;;;;;;;;;;;10.62;100.00;99872.78;4911440;29;19923;-67
2022/12/29 02:14:39;;;;;;;;;;;;;;;10.47;100.00;99864.34;4909352;29;20392;-66
2022/12/29 02:17:22;;;;;;;;;;;;;;;10.52;100.00;99878.13;4912210;29;19911;-67
2022/12/29 02:19:50;;;;;;;;;;;;;;;10.48;100.00;99871.47;4911658;29;20000;-67
2022/12/29 02:22:18;;;;;;;;;;;;;;;10.53;100.00;99872.38;4912174;29;19922;-66
2022/12/29 02:24:43;;;;;;;;;;;;;;;10.50;100.00;99885.81;4911128;29;19926;-67
2022/12/29 02:27:14;;;;;;;;;;;;;;;10.62;100.00;99879.09;4911819;29;19922;-66
2022/12/29 02:29:58;;;;;;;;;;;;;;;10.64;100.00;99881.59;4910880;29;19933;-67
2022/12/29 02:32:32;;;;;;;;;;;;;;;10.64;100.00;99859.63;4911123;29;19919;-68
2022/12/29 02:35:03;;;;;;;;;;;;;;;10.76;100.00;99876.81;4911151;29;19929;-67
2022/12/29 02:37:42;;;;;;;;;;;;;;;10.65;100.00;99866.78;4911474;29;19919;-67
2022/12/29 02:40:20;;;;;;;;;;;;;;;10.72;100.00;99869.34;4910227;29;19918;-68
2022/12/29 02:42:49;;;;;;;;;;;;;;;10.73;100.00;99865.50;4904830;29;20014;-67
2022/12/29 02:45:21;;;;;;;;;;;;;;;10.89;100.00;99859.09;4892833;29;20355;-67
2022/12/29 02:47:56;;;;;;;;;;;;;;;10.78;100.00;99849.06;4907082;29;19915;-66
2022/12/29 02:50:33;;;;;;;;;;;;;;;10.83;100.00;99863.69;4909524;29;19919;-66
2022/12/29 02:53:00;;;;;;;;;;;;;;;10.73;100.00;99874.56;4910766;29;19919;-66
2022/12/29 02:55:26;;;;;;;;;;;;;;;10.87;100.00;99867.59;4911734;29;19919;-66
2022/12/29 02:58:10;;;;;;;;;;;;;;;10.70;100.00;99861.38;4910522;29;19922;-66
2022/12/29 03:00:40;;;;;;;;;;;;;;;10.66;100.00;99854.72;4911281;29;20015;-66
2022/12/29 03:03:08;;;;;;;;;;;;;;;10.63;100.00;99844.22;4911404;29;19919;-67
2022/12/29 03:05:33;;;;;;;;;;;;;;;10.79;100.00;99840.56;4910357;29;19934;-67
2022/12/29 03:07:59;;;;;;;;;;;;;;;10.71;100.00;99854.78;4911108;29;20317;-67
2022/12/29 03:10:38;;;;;;;;;;;;;;;10.64;100.00;99854.13;4909228;29;19919;-67
2022/12/29 03:16:03;;;;;;;;;;;;;;;10.64;100.00;99860.47;4911490;29;19962;-66
2022/12/29 03:18:28;;;;;;;;;;;;;;;10.72;100.00;99845.44;4911312;29;19925;-66
2022/12/29 03:20:58;;;;;;;;;;;;;;;10.58;100.00;99855.16;4910845;29;19919;-67
2022/12/29 03:23:24;;;;;;;;;;;;;;;10.61;100.00;99849.16;4910407;29;20263;-66
2022/12/29 03:25:53;;;;;;;;;;;;;;;10.62;100.00;99848.91;4911443;29;19926;-67
2022/12/29 03:28:22;;;;;;;;;;;;;;;10.50;100.00;99845.47;4910319;29;19915;-67
2022/12/29 03:30:48;;;;;;;;;;;;;;;10.51;100.00;99844.38;4910443;29;19926;-67
2022/12/29 03:33:15;;;;;;;;;;;;;;;10.76;100.00;99840.28;4910535;29;19945;-67
2022/12/29 03:35:42;;;;;;;;;;;;;;;10.57;100.00;99837.84;4910896;29;19919;-67
2022/12/29 03:38:11;;;;;;;;;;;;;;;10.46;100.00;99854.44;4910681;29;19919;-69
2022/12/29 03:40:38;;;;;;;;;;;;;;;10.46;100.00;99835.25;4911286;29;19966;-67
2022/12/29 03:43:04;;;;;;;;;;;;;;;10.42;100.00;99845.06;4909604;29;20294;-67
2022/12/29 03:45:29;;;;;;;;;;;;;;;10.45;100.00;99839.06;4910887;29;19922;-66
2022/12/29 03:47:54;;;;;;;;;;;;;;;10.33;100.00;99850.97;4911500;29;19971;-66
2022/12/29 03:50:20;;;;;;;;;;;;;;;10.37;100.00;99851.31;4910273;29;20244;-67
2022/12/29 03:52:45;;;;;;;;;;;;;;;10.44;100.00;99840.13;4909710;29;20014;-66
2022/12/29 03:55:10;;;;;;;;;;;;;;;10.43;100.00;99830.25;4911156;29;19919;-67
2022/12/29 03:57:35;;;;;;;;;;;;;;;10.52;100.00;99856.16;4911601;29;19922;-67
2022/12/29 04:00:01;;;;;;;;;;;;;;;10.28;100.00;99850.06;4910263;29;20418;-68
2022/12/29 04:02:26;;;;;;;;;;;;;;;10.33;100.00;99845.47;4910590;29;20812;-67
2022/12/29 04:04:51;;;;;;;;;;;;;;;10.27;100.00;99852.00;4910648;29;19919;-66
2022/12/29 04:07:17;;;;;;;;;;;;;;;10.33;100.00;99847.41;4909978;29;20005;-66
2022/12/29 04:09:42;;;;;;;;;;;;;;;10.22;100.00;99868.34;4910489;29;19919;-67
2022/12/29 04:12:07;;;;;;;;;;;;;;;10.24;100.00;99866.25;4911250;29;20393;-69
2022/12/29 04:14:32;;;;;;;;;;;;;;;10.17;100.00;99870.19;4908980;29;19926;-67
2022/12/29 04:16:57;;;;;;;;;;;;;;;10.13;100.00;99850.66;4913620;29;19922;-67
2022/12/29 04:19:23;;;;;;;;;;;;;;;10.14;100.00;99863.31;4913697;29;19963;-66
2022/12/29 04:21:48;;;;;;;;;;;;;;;10.24;100.00;99865.38;4912611;29;20406;-66
2022/12/29 04:24:13;;;;;;;;;;;;;;;10.06;100.00;99858.25;4916445;29;19919;-66
2022/12/29 04:26:38;;;;;;;;;;;;;;;10.24;100.00;99862.63;4913176;29;19919;-66
2022/12/29 04:29:04;;;;;;;;;;;;;;;10.12;100.00;99879.19;4913471;29;20383;-66
2022/12/29 04:31:29;;;;;;;;;;;;;;;10.18;100.00;99871.84;4912913;29;19925;-68
2022/12/29 04:33:56;;;;;;;;;;;;;;;9.97;100.00;99876.19;4912917;29;19919;-66
2022/12/29 04:36:22;;;;;;;;;;;;;;;10.08;100.00;99881.59;4913180;29;19926;-66
2022/12/29 04:38:47;;;;;;;;;;;;;;;9.74;100.00;99872.56;4911321;29;19923;-67
2022/12/29 04:41:12;;;;;;;;;;;;;;;9.73;100.00;99875.53;4912655;29;19926;-66
2022/12/29 04:43:37;;;;;;;;;;;;;;;9.67;100.00;99877.38;4911125;29;19919;-68
2022/12/29 04:46:02;;;;;;;;;;;;;;;9.79;100.00;99866.34;4913151;29;19941;-66
2022/12/29 04:48:28;;;;;;;;;;;;;;;9.79;100.00;99864.44;4912983;29;20466;-67
2022/12/29 04:50:53;;;;;;;;;;;;;;;9.77;100.00;99871.22;4913036;29;20362;-67
2022/12/29 04:53:18;;;;;;;;;;;;;;;9.68;100.00;99890.03;4913186;29;19930;-67
2022/12/29 04:55:43;;;;;;;;;;;;;;;9.75;100.00;99889.84;4913135;29;19915;-66
2022/12/29 04:58:09;;;;;;;;;;;;;;;9.62;100.00;99897.31;4913033;29;19919;-67
2022/12/29 05:00:34;;;;;;;;;;;;;;;9.55;100.00;99906.78;4913258;29;19965;-67
2022/12/29 05:02:59;;;;;;;;;;;;;;;9.60;100.00;99912.34;4912823;29;20018;-67
2022/12/29 05:05:24;;;;;;;;;;;;;;;9.64;100.00;99915.44;4913753;29;19915;-66
2022/12/29 05:07:50;;;;;;;;;;;;;;;9.44;100.00;99922.22;4912917;29;20005;-66
2022/12/29 05:10:15;;;;;;;;;;;;;;;9.63;100.00;99917.34;4912670;29;20504;-66
2022/12/29 05:12:40;;;;;;;;;;;;;;;9.47;100.00;99918.13;4912199;29;19961;-66
2022/12/29 05:15:06;;;;;;;;;;;;;;;9.32;100.00;99924.16;4912760;29;19919;-67
2022/12/29 05:17:31;;;;;;;;;;;;;;;9.45;100.00;99940.31;4913170;29;19915;-66
2022/12/29 05:19:56;;;;;;;;;;;;;;;9.34;100.00;99941.19;4913356;29;19922;-66
2022/12/29 05:22:22;;;;;;;;;;;;;;;9.39;100.00;99945.94;4913006;29;19911;-66
2022/12/29 05:24:47;;;;;;;;;;;;;;;9.29;100.00;99952.88;4912445;29;19919;-66
2022/12/29 05:27:13;;;;;;;;;;;;;;;9.41;100.00;99950.09;4912245;29;20379;-66
2022/12/29 05:29:38;;;;;;;;;;;;;;;9.33;100.00;99959.56;4912029;29;20351;-67
2022/12/29 05:32:03;;;;;;;;;;;;;;;9.49;100.00;99946.97;4913036;29;19926;-67
2022/12/29 05:34:28;;;;;;;;;;;;;;;9.36;100.00;99959.03;4912862;29;20463;-67
2022/12/29 05:36:54;;;;;;;;;;;;;;;9.48;100.00;99950.78;4912220;29;19919;-66
2022/12/29 05:39:19;;;;;;;;;;;;;;;9.46;100.00;99952.09;4912704;29;19971;-66
2022/12/29 05:41:44;;;;;;;;;;;;;;;9.61;99.95;99953.22;4910861;29;19925;-66
2022/12/29 05:44:10;;;;;;;;;;;;;;;9.62;99.81;99956.78;4911154;29;20287;-66
2022/12/29 05:46:35;;;;;;;;;;;;;;;9.62;99.17;99970.50;4911017;29;19966;-66
2022/12/29 05:49:00;;;;;;;;;;;;;;;9.65;99.83;99953.56;4910970;29;19915;-66
2022/12/29 05:51:25;;;;;;;;;;;;;;;9.62;99.59;99956.78;4911197;29;20346;-66
2022/12/29 05:53:51;;;;;;;;;;;;;;;9.63;99.76;99963.97;4908858;29;20223;-66
2022/12/29 05:56:16;;;;;;;;;;;;;;;9.72;99.43;99961.63;4910340;29;19919;-66
2022/12/29 05:58:41;;;;;;;;;;;;;;;9.84;98.19;99959.66;4910066;29;19915;-66
2022/12/29 06:01:06;;;;;;;;;;;;;;;9.84;97.81;99968.72;4910742;29;19919;-67
2022/12/29 06:03:31;;;;;;;;;;;;;;;9.96;97.18;99970.56;4909694;29;20333;-66
2022/12/29 06:05:57;;;;;;;;;;;;;;;9.82;96.99;99972.78;4907932;29;19923;-67
2022/12/29 06:08:22;;;;;;;;;;;;;;;9.83;96.71;99964.31;4909304;29;20010;-66
2022/12/29 06:10:47;;;;;;;;;;;;;;;9.90;95.46;99985.25;4909778;29;19919;-66
2022/12/29 06:13:12;;;;;;;;;;;;;;;9.89;95.73;99959.75;4909291;29;19922;-66
2022/12/29 06:15:37;;;;;;;;;;;;;;;9.83;96.22;99961.56;4909520;29;19919;-67
2022/12/29 06:18:02;;;;;;;;;;;;;;;9.88;96.21;99963.56;4908940;29;20286;-66
2022/12/29 06:20:28;;;;;;;;;;;;;;;9.76;96.89;99966.38;4909140;29;19919;-66
2022/12/29 06:22:53;;;;;;;;;;;;;;;9.98;94.82;99957.41;4909879;29;19915;-66
2022/12/29 06:25:18;;;;;;;;;;;;;;;9.87;95.26;99953.66;4909726;29;20277;-67
2022/12/29 06:27:43;;;;;;;;;;;;;;;9.79;95.13;99956.84;4908915;29;20338;-67
2022/12/29 06:30:09;;;;;;;;;;;;;;;9.79;94.70;99968.63;4909664;29;19954;-66
2022/12/29 06:32:34;;;;;;;;;;;;;;;9.74;95.07;99948.50;4910818;29;19919;-66
2022/12/29 06:34:59;;;;;;;;;;;;;;;9.79;95.02;99957.66;4908498;29;20346;-68
2022/12/29 06:37:25;;;;;;;;;;;;;;;9.62;95.80;99956.78;4907727;29;20639;-66
2022/12/29 06:39:50;;;;;;;;;;;;;;;9.72;95.24;99948.75;4907921;29;20317;-66
2022/12/29 06:42:15;;;;;;;;;;;;;;;9.65;96.16;99956.31;4906822;29;19990;-66
2022/12/29 06:44:40;;;;;;;;;;;;;;;9.65;95.29;99956.31;4908864;29;20297;-66
2022/12/29 06:47:05;;;;;;;;;;;;;;;9.66;94.64;99965.34;4909113;29;20347;-67
2022/12/29 06:49:31;;;;;;;;;;;;;;;9.73;93.82;99939.47;4909110;29;20033;-67
2022/12/29 06:51:58;;;;;;;;;;;;;;;9.76;92.88;99960.88;4907067;29;19923;-66
2022/12/29 06:54:23;;;;;;;;;;;;;;;9.65;94.05;99955.47;4910350;29;20153;-66
2022/12/29 06:56:48;;;;;;;;;;;;;;;9.76;93.85;99960.06;4909764;29;20362;-66
2022/12/29 06:59:13;;;;;;;;;;;;;;;9.78;93.91;99958.75;4908709;29;19915;-67
2022/12/29 07:01:38;;;;;;;;;;;;;;;9.76;93.84;99960.88;4909520;29;20365;-66
2022/12/29 07:04:04;;;;;;;;;;;;;;;9.91;92.74;99963.06;4908803;29;19950;-67
2022/12/29 07:06:29;;;;;;;;;;;;;;;9.75;93.96;99961.97;4909565;29;19922;-67
2022/12/29 07:08:54;;;;;;;;;;;;;;;9.92;92.58;99956.50;4908735;29;19962;-67
2022/12/29 07:11:20;;;;;;;;;;;;;;;9.98;91.98;99965.63;4909179;29;20014;-67
2022/12/29 07:13:45;;;;;;;;;;;;;;;10.01;92.91;99971.47;4908833;29;20409;-67
2022/12/29 07:16:10;;;;;;;;;;;;;;;9.86;92.63;99980.25;4905682;29;19926;-66
2022/12/29 07:18:36;;;;;;;;;;;;;;;9.94;92.24;99983.69;4908613;29;19926;-66
2022/12/29 07:21:01;;;;;;;;;;;;;;;10.08;91.33;99996.00;4909042;29;19926;-67
2022/12/29 07:23:27;;;;;;;;;;;;;;;9.97;91.78;99970.28;4909051;29;19919;-66
2022/12/29 07:26:02;;;;;;;;;;;;;;;9.98;90.94;99990.31;4909485;29;19922;-67
2022/12/29 07:28:27;;;;;;;;;;;;;;;10.00;90.68;99997.25;4907472;29;19934;-67
2022/12/29 07:30:52;;;;;;;;;;;;;;;9.94;90.35;100013.88;4908892;29;20005;-66
2022/12/29 07:33:17;;;;;;;;;;;;;;;10.06;88.91;100006.38;4909039;29;20017;-66
2022/12/29 07:35:43;;;;;;;;;;;;;;;10.22;87.91;100011.06;4923249;29;19919;-66
2022/12/29 07:38:08;;;;;;;;;;;;;;;9.94;88.46;100016.63;4909121;29;19919;-68
2022/12/29 07:40:33;;;;;;;;;;;;;;;10.06;88.30;100009.13;4907206;29;19990;-67
2022/12/29 07:42:58;;;;;;;;;;;;;;;9.79;89.13;100026.22;4904901;29;20022;-67
2022/12/29 07:45:23;;;;;;;;;;;;;;;9.71;89.65;100012.06;4909775;29;19915;-65
2022/12/29 07:47:49;;;;;;;;;;;;;;;9.81;88.52;100010.34;4909438;29;19945;-66
2022/12/29 07:50:14;;;;;;;;;;;;;;;9.66;88.38;100020.19;4909308;29;20169;-67
2022/12/29 07:52:39;;;;;;;;;;;;;;;9.82;87.53;100022.13;4910391;29;19951;-66
2022/12/29 07:55:05;;;;;;;;;;;;;;;9.66;89.39;100017.44;4912730;29;19915;-66
2022/12/29 07:57:30;;;;;;;;;;;;;;;9.69;88.73;100019.72;4904459;29;20334;-66
2022/12/29 07:59:55;;;;;;;;;;;;;;;9.83;87.96;100032.03;4903991;29;19922;-66
2022/12/29 08:02:20;;;;;;;;;;;;;;;9.84;87.89;100034.53;4911031;29;19994;-66
2022/12/29 08:04:46;;;;;;;;;;;;;;;9.80;89.22;100040.75;4912949;29;19922;-66
2022/12/29 08:07:11;;;;;;;;;;;;;;;9.74;89.15;100048.06;4912144;29;20013;-66
2022/12/29 08:09:36;;;;;;;;;;;;;;;9.90;88.24;100057.41;4912795;29;19923;-66
2022/12/29 08:12:01;;;;;;;;;;;;;;;10.00;88.02;100046.63;4919051;29;19914;-66
2022/12/29 08:14:26;;;;;;;;;;;;;;;9.87;88.97;100052.41;4932022;29;19946;-66
2022/12/29 08:16:51;;;;;;;;;;;;;;;9.73;90.13;100051.03;4931447;29;19914;-66
2022/12/29 08:19:17;;;;;;;;;;;;;;;9.80;89.88;100054.47;4914105;29;20603;-66
2022/12/29 08:21:42;;;;;;;;;;;;;;;9.76;89.60;100062.34;4906450;29;19919;-67
2022/12/29 08:24:08;;;;;;;;;;;;;;;9.73;90.08;100051.03;4913000;29;20069;-67
2022/12/29 08:26:33;;;;;;;;;;;;;;;9.93;89.34;100050.56;4912840;29;19915;-66
2022/12/29 08:28:58;;;;;;;;;;;;;;;9.98;89.28;100035.03;4911500;29;19919;-66
2022/12/29 08:31:23;;;;;;;;;;;;;;;10.02;87.66;100058.16;4912547;29;20397;-66
2022/12/29 08:33:49;;;;;;;;;;;;;;;10.14;86.66;100038.91;4911678;29;20271;-66
2022/12/29 08:36:14;;;;;;;;;;;;;;;10.06;86.25;100023.69;4912779;29;19915;-66
2022/12/29 08:38:39;;;;;;;;;;;;;;;10.25;84.88;100049.03;4911466;29;19919;-66
2022/12/29 08:41:05;;;;;;;;;;;;;;;10.26;84.97;100038.88;4912450;29;19915;-67
2022/12/29 08:43:30;;;;;;;;;;;;;;;10.13;86.39;100038.06;4911341;29;19915;-67
2022/12/29 08:45:56;;;;;;;;;;;;;;;10.20;85.94;100045.31;4912310;29;19966;-66
2022/12/29 08:48:22;;;;;;;;;;;;;;;10.31;85.39;100037.03;4910555;29;19942;-67
2022/12/29 08:50:48;;;;;;;;;;;;;;;10.41;84.41;100041.03;4911521;29;19942;-66
2022/12/29 08:53:13;;;;;;;;;;;;;;;10.28;84.89;100026.53;4910389;29;19919;-67
2022/12/29 08:55:38;;;;;;;;;;;;;;;10.48;83.21;100044.44;4905710;29;20378;-67
2022/12/29 08:58:03;;;;;;;;;;;;;;;10.45;82.16;100037.56;4907538;29;20435;-67
2022/12/29 09:00:29;;;;;;;;;;;;;;;10.30;84.38;100053.75;4904676;29;20028;-66
2022/12/29 09:02:54;;;;;;;;;;;;;;;10.41;83.26;100049.28;4907837;29;19923;-67
2022/12/29 09:05:19;;;;;;;;;;;;;;;10.43;83.82;100038.88;4906394;29;20334;-66
2022/12/29 09:07:44;;;;;;;;;;;;;;;10.27;84.64;100046.00;4910242;29;19926;-67
2022/12/29 09:10:10;;;;;;;;;;;;;;;10.31;84.01;100036.22;4910160;29;19923;-67
2022/12/29 09:12:35;;;;;;;;;;;;;;;10.32;84.07;100046.94;4911439;29;19915;-62
2022/12/29 09:15:00;;;;;;;;;;;;;;;10.27;84.36;100046.84;4909896;29;19919;-64
2022/12/29 09:20:09;;;;;;;;;;;;;;;10.31;84.75;100063.66;4911270;29;19930;-65
2022/12/29 09:22:35;;;;;;;;;;;;;;;10.65;82.91;100057.09;4910515;29;20307;-64
2022/12/29 09:25:00;;;;;;;;;;;;;;;10.60;82.49;100083.66;4899792;29;19946;-63
2022/12/29 09:27:25;;;;;;;;;;;;;;;10.68;82.53;100053.00;4892802;29;19915;-63
2022/12/29 09:29:51;;;;;;;;;;;;;;;10.56;83.56;100082.47;4893711;29;20476;-63
2022/12/29 09:32:16;;;;;;;;;;;;;;;10.50;84.81;100083.47;4893609;29;19915;-64
2022/12/29 09:34:41;;;;;;;;;;;;;;;10.42;85.92;100086.63;4912051;29;19919;-63
2022/12/29 09:37:06;;;;;;;;;;;;;;;10.40;85.93;100086.88;4912920;29;19915;-64
2022/12/29 09:39:31;;;;;;;;;;;;;;;10.35;86.68;100092.28;4913531;29;19922;-64
2022/12/29 09:42:06;;;;;;;;;;;;;;;10.17;87.63;100090.53;4911704;29;19919;-63
2022/12/29 09:44:43;;;;;;;;;;;;;;;10.07;88.53;100106.81;4912049;29;20017;-64
2022/12/29 09:47:10;;;;;;;;;;;;;;;10.19;87.69;100121.34;4912286;29;20383;-67
2022/12/29 09:49:53;;;;;;;;;;;;;;;10.05;89.75;100115.31;4911888;29;19923;-64
2022/12/29 09:52:21;;;;;;;;;;;;;;;10.03;89.52;100122.09;4904867;29;19920;-65
2022/12/29 09:54:59;;;;;;;;;;;;;;;10.26;89.21;100127.53;4892933;29;19915;-66
2022/12/29 09:57:26;;;;;;;;;;;;;;;10.00;90.31;100123.44;4891556;29;20162;-66
2022/12/29 09:59:55;;;;;;;;;;;;;;;10.08;89.95;100131.25;4891996;29;19922;-65
2022/12/29 10:02:40;;;;;;;;;;;;;;;10.08;90.68;100116.69;4902025;29;20370;-66
2022/12/29 10:05:29;;;;;;;;;;;;;;;9.94;91.39;100145.53;4911042;29;19962;-65
2022/12/29 10:08:13;;;;;;;;;;;;;;;9.86;91.99;100158.53;4896276;29;19919;-66
2022/12/29 10:10:40;;;;;;;;;;;;;;;9.80;92.38;100158.69;4891911;29;19965;-66
2022/12/29 10:13:14;;;;;;;;;;;;;;;9.64;93.94;100162.19;4891289;29;19911;-65
2022/12/29 10:15:55;;;;;;;;;;;;;;;9.80;93.37;100167.75;4891705;29;19923;-66
2022/12/29 10:18:39;;;;;;;;;;;;;;;9.67;94.47;100176.22;4891558;29;20010;-66
2022/12/29 10:21:12;;;;;;;;;;;;;;;9.60;94.91;100184.59;4892360;29;19962;-66
2022/12/29 10:23:45;;;;;;;;;;;;;;;9.54;96.25;100195.69;4895069;29;19982;-67
2022/12/29 10:26:13;;;;;;;;;;;;;;;9.54;95.62;100190.22;4892215;29;19912;-66
2022/12/29 10:28:42;;;;;;;;;;;;;;;9.50;96.30;100211.78;4890745;29;20347;-65
2022/12/29 10:31:10;;;;;;;;;;;;;;;9.57;96.69;100206.16;4892032;29;20407;-67
2022/12/29 10:33:37;;;;;;;;;;;;;;;9.32;97.80;100209.97;4891994;29;20385;-66
2022/12/29 10:36:11;;;;;;;;;;;;;;;9.47;97.36;100208.66;4906373;29;20283;-66
2022/12/29 10:38:53;;;;;;;;;;;;;;;9.51;98.21;100223.56;4892918;29;19945;-66
2022/12/29 10:41:25;;;;;;;;;;;;;;;9.47;98.05;100222.38;4896012;29;20133;-65
2022/12/29 10:43:52;;;;;;;;;;;;;;;9.43;98.69;100221.19;4910663;29;19915;-65
2022/12/29 10:46:19;;;;;;;;;;;;;;;9.35;99.53;100236.91;4912558;29;19915;-66
2022/12/29 10:48:46;;;;;;;;;;;;;;;9.40;99.06;100229.88;4911943;29;19915;-66
2022/12/29 10:51:17;;;;;;;;;;;;;;;9.25;100.00;100227.63;4912029;29;19922;-66
2022/12/29 10:53:44;;;;;;;;;;;;;;;9.44;99.29;100245.63;4911302;29;19934;-65
2022/12/29 10:56:17;;;;;;;;;;;;;;;9.52;99.67;100231.53;4911964;29;20350;-65
2022/12/29 10:58:44;;;;;;;;;;;;;;;9.51;99.96;100231.78;4907514;29;19919;-65
2022/12/29 11:01:11;;;;;;;;;;;;;;;9.44;99.71;100242.88;4911651;29;20327;-66
2022/12/29 11:03:45;;;;;;;;;;;;;;;9.41;99.86;100245.25;4911830;29;19946;-65
2022/12/29 11:06:10;;;;;;;;;;;;;;;9.47;99.65;100260.75;4910410;29;19965;-66
2022/12/29 11:08:50;;;;;;;;;;;;;;;9.47;99.72;100255.25;4908644;29;19954;-66
2022/12/29 11:11:22;;;;;;;;;;;;;;;9.40;100.00;100263.59;4910390;29;19969;-65
2022/12/29 11:13:55;;;;;;;;;;;;;;;9.44;99.76;100275.78;4909302;29;19919;-65
2022/12/29 11:16:27;;;;;;;;;;;;;;;9.66;99.17;100270.53;4906919;29;19919;-66
2022/12/29 11:18:52;;;;;;;;;;;;;;;9.72;97.98;100275.03;4899573;29;20014;-66
2022/12/29 11:21:30;;;;;;;;;;;;;;;9.72;97.82;100269.56;4910304;29;20002;-73
2022/12/29 11:24:05;;;;;;;;;;;;;;;9.98;97.91;100275.63;4909678;29;20000;-64
2022/12/29 11:26:31;;;;;;;;;;;;;;;10.64;93.96;100277.00;4913532;29;19919;-66
2022/12/29 11:29:14;;;;;;;;;;;;;;;10.86;92.87;100279.94;4916347;29;20342;-65
2022/12/29 11:31:47;;;;;;;;;;;;;;;10.69;92.60;100287.28;4916416;29;19929;-68
2022/12/29 11:34:24;;;;;;;;;;;;;;;10.46;93.11;100291.78;4908522;29;20312;-68
2022/12/29 11:36:50;;;;;;;;;;;;;;;10.28;93.81;100294.69;4897989;29;19916;-68
2022/12/29 11:39:30;;;;;;;;;;;;;;;10.28;94.25;100289.19;4903956;29;19919;-68
2022/12/29 11:41:56;;;;;;;;;;;;;;;10.43;93.29;100295.00;4908755;29;21099;-68
2022/12/29 11:44:21;;;;;;;;;;;;;;;10.43;94.44;100296.91;4917888;29;20017;-68
2022/12/29 11:46:49;;;;;;;;;;;;;;;10.68;92.94;100294.69;4917714;29;20005;-68
2022/12/29 11:49:18;;;;;;;;;;;;;;;10.72;91.60;100304.09;4916967;29;19966;-67
2022/12/29 11:51:45;;;;;;;;;;;;;;;10.53;92.05;100311.69;4909184;29;19947;-67
2022/12/29 11:54:16;;;;;;;;;;;;;;;10.51;92.67;100304.78;4898856;29;20001;-68
2022/12/29 11:56:43;;;;;;;;;;;;;;;10.60;91.58;100315.13;4898085;29;19926;-68
2022/12/29 11:59:26;;;;;;;;;;;;;;;10.51;92.69;100315.75;4914956;29;19930;-69
2022/12/29 12:01:52;;;;;;;;;;;;;;;10.44;91.74;100326.91;4917428;29;20317;-68
2022/12/29 12:04:19;;;;;;;;;;;;;;;10.62;91.66;100312.13;4916785;29;20014;-68
2022/12/29 12:06:47;;;;;;;;;;;;;;;10.84;90.65;100310.38;4916806;29;20330;-68
2022/12/29 12:09:16;;;;;;;;;;;;;;;11.04;88.83;100315.41;4917810;29;19921;-68
2022/12/29 12:11:43;;;;;;;;;;;;;;;11.16;88.92;100313.44;4914306;29;19919;-68
2022/12/29 12:14:14;;;;;;;;;;;;;;;11.41;87.54;100302.06;4917458;29;20389;-68
2022/12/29 12:16:41;;;;;;;;;;;;;;;11.54;87.71;100313.81;4916530;29;19929;-68
2022/12/29 12:19:13;;;;;;;;;;;;;;;11.63;85.60;100318.63;4908364;29;19919;-68
2022/12/29 12:21:40;;;;;;;;;;;;;;;11.79;85.25;100305.94;4916603;29;19922;-68
2022/12/29 12:24:14;;;;;;;;;;;;;;;11.57;84.49;100296.81;4909731;29;19919;-66
2022/12/29 12:26:40;;;;;;;;;;;;;;;10.97;87.76;100324.91;4897863;29;20587;-68
2022/12/29 12:29:10;;;;;;;;;;;;;;;10.67;89.69;100319.66;4905837;29;19958;-71
2022/12/29 12:31:38;;;;;;;;;;;;;;;10.84;89.06;100315.84;4918170;29;19922;-67
2022/12/29 12:34:07;;;;;;;;;;;;;;;10.95;86.91;100316.06;4908646;29;20660;-66
2022/12/29 12:36:51;;;;;;;;;;;;;;;10.80;88.30;100313.88;4910378;29;19963;-70
2022/12/29 12:39:40;;;;;;;;;;;;;;;10.88;88.12;100306.06;4914640;29;20594;-64
2022/12/29 12:42:24;;;;;;;;;;;;;;;11.55;85.25;100319.03;4900639;29;20136;-66
2022/12/29 12:44:55;;;;;;;;;;;;;;;11.39;85.03;100323.44;4895415;29;19911;-65
2022/12/29 12:47:42;;;;;;;;;;;;;;;11.09;85.31;100320.16;4896071;29;20339;-62
2022/12/29 12:50:23;;;;;;;;;;;;;;;10.74;87.76;100328.56;4895589;29;20355;-65
2022/12/29 12:52:57;;;;;;;;;;;;;;;10.46;89.86;100324.72;4901496;29;19962;-65
2022/12/29 12:55:52;;;;;;;;;;;;;;;10.50;89.78;100322.34;4914388;29;19922;-66
2022/12/29 12:58:25;;;;;;;;;;;;;;;10.50;89.74;100330.56;4859794;29;19916;-66
2022/12/29 13:01:00;;;;;;;;;;;;;;;10.71;88.69;100329.91;4905632;29;19926;-67
2022/12/29 13:03:44;;;;;;;;;;;;;;;10.82;87.26;100330.94;4912680;29;19947;-66
2022/12/29 13:06:18;;;;;;;;;;;;;;;10.68;87.58;100338.63;4912752;29;19982;-66
2022/12/29 13:09:05;;;;;;;;;;;;;;;10.69;86.86;100336.72;4910930;29;19918;-67
2022/12/29 13:11:49;;;;;;;;;;;;;;;10.55;88.20;100338.91;4911492;29;19915;-67
2022/12/29 13:14:14;;;;;;;;;;;;;;;10.50;87.89;100342.38;4911649;29;19955;-66
2022/12/29 13:16:46;;;;;;;;;;;;;;;10.60;86.50;100347.25;4911276;29;20336;-67
2022/12/29 13:19:17;;;;;;;;;;;;;;;10.36;87.83;100354.72;4911291;29;20040;-67
2022/12/29 13:21:51;;;;;;;;;;;;;;;10.44;88.68;100351.59;4910738;29;20359;-67